Time;durP1;ratioP1;P1;durP2;ratioP2;P2;SDS_P1;SDS_P2;PMS_P1;PMS_P2;Temp;Humidity;BMP_temperature;BMP_pressure;BME280_temperature;BME280_humidity;BME280_pressure;Samples;Min_cycle;Max_cycle;Signal;HPM_P1;HPM_P2
2021/11/27 00:00:53;;;;;;;4.97;3.87;;;4.50;99.90;;;;;;5062425;28;20526;-63
2021/11/27 00:03:21;;;;;;;5.20;3.80;;;4.60;99.90;;;;;;5061894;28;20482;-63
2021/11/27 00:05:48;;;;;;;4.00;3.27;;;4.60;99.90;;;;;;5060689;28;20525;-63
2021/11/27 00:08:18;;;;;;;6.83;4.20;;;4.60;99.90;;;;;;5040602;28;20569;-61
2021/11/27 00:10:49;;;;;;;5.30;4.00;;;4.70;99.90;;;;;;5046447;28;20895;-60
2021/11/27 00:13:16;;;;;;;5.27;3.50;;;4.60;99.90;;;;;;5044361;28;20476;-64
2021/11/27 00:15:44;;;;;;;6.73;4.23;;;4.60;99.90;;;;;;5046542;28;20446;-63
2021/11/27 00:18:12;;;;;;;4.03;3.30;;;4.70;99.90;;;;;;5046827;28;20493;-63
2021/11/27 00:20:43;;;;;;;4.93;4.07;;;4.60;99.90;;;;;;5046757;28;20526;-63
2021/11/27 00:23:11;;;;;;;4.73;3.77;;;4.60;99.90;;;;;;5040940;28;20481;-64
2021/11/27 00:25:38;;;;;;;5.40;3.40;;;4.60;99.90;;;;;;5047014;28;20539;-64
2021/11/27 00:28:06;;;;;;;5.70;3.43;;;4.50;99.90;;;;;;5046110;28;21399;-63
2021/11/27 00:30:35;;;;;;;4.40;3.33;;;4.50;99.90;;;;;;5040591;28;20495;-63
2021/11/27 00:33:03;;;;;;;5.77;3.80;;;4.40;99.90;;;;;;5037188;28;20527;-61
2021/11/27 00:35:30;;;;;;;5.80;3.87;;;4.40;99.90;;;;;;5045345;28;20534;-63
2021/11/27 00:37:58;;;;;;;4.10;2.73;;;4.40;99.90;;;;;;5045795;28;20476;-63
2021/11/27 00:40:26;;;;;;;5.83;3.23;;;4.40;99.90;;;;;;5044891;28;20458;-63
2021/11/27 00:42:54;;;;;;;4.70;3.00;;;4.40;99.90;;;;;;5043367;28;20570;-61
2021/11/27 00:45:24;;;;;;;6.13;3.23;;;4.50;99.90;;;;;;5044197;28;20480;-61
2021/11/27 00:47:53;;;;;;;5.10;3.57;;;4.50;99.90;;;;;;5039327;28;20582;-64
2021/11/27 00:50:23;;;;;;;7.20;4.07;;;4.50;99.90;;;;;;5046626;28;20542;-62
2021/11/27 00:52:50;;;;;;;6.77;3.50;;;4.50;99.90;;;;;;5046379;28;20454;-64
2021/11/27 00:55:18;;;;;;;5.53;3.93;;;4.50;99.90;;;;;;5046411;28;20539;-61
2021/11/27 00:57:47;;;;;;;6.63;3.80;;;4.50;99.90;;;;;;5045856;28;20563;-59
2021/11/27 01:00:17;;;;;;;4.50;3.50;;;4.60;99.90;;;;;;5046363;28;20455;-63
2021/11/27 01:02:45;;;;;;;5.83;4.13;;;4.60;99.90;;;;;;5046920;28;20575;-62
2021/11/27 01:05:13;;;;;;;4.50;3.10;;;4.60;99.90;;;;;;5050007;28;20455;-63
2021/11/27 01:07:40;;;;;;;5.90;4.23;;;4.60;99.90;;;;;;5049703;28;20515;-62
2021/11/27 01:10:10;;;;;;;5.20;3.73;;;4.60;99.90;;;;;;5050591;28;20461;-63
2021/11/27 01:12:37;;;;;;;5.13;3.07;;;4.60;99.90;;;;;;5051355;28;20881;-63
2021/11/27 01:15:06;;;;;;;4.70;3.50;;;4.60;99.90;;;;;;5050492;28;20479;-61
2021/11/27 01:17:33;;;;;;;6.20;3.87;;;4.50;99.90;;;;;;5050709;28;20551;-63
2021/11/27 01:20:02;;;;;;;5.73;3.40;;;4.50;99.90;;;;;;5052151;28;20490;-63
2021/11/27 01:22:29;;;;;;;5.47;3.33;;;4.50;99.90;;;;;;5050892;28;20501;-64
2021/11/27 01:24:56;;;;;;;5.50;3.87;;;4.50;99.90;;;;;;5050701;28;20535;-61
2021/11/27 01:27:24;;;;;;;4.33;3.33;;;4.40;99.90;;;;;;5050428;28;20474;-64
2021/11/27 01:29:51;;;;;;;5.23;3.80;;;4.40;99.90;;;;;;5050821;28;20851;-62
2021/11/27 01:32:19;;;;;;;7.53;4.60;;;4.40;99.90;;;;;;5050889;28;20487;-61
2021/11/27 01:34:47;;;;;;;5.87;4.00;;;4.40;99.90;;;;;;5050736;28;20569;-61
2021/11/27 01:37:16;;;;;;;5.60;3.77;;;4.40;99.90;;;;;;5050426;28;20504;-61
2021/11/27 01:39:44;;;;;;;5.53;3.37;;;4.40;99.90;;;;;;5050763;28;20510;-61
2021/11/27 01:42:12;;;;;;;5.00;3.97;;;4.50;99.90;;;;;;5050107;28;20452;-63
2021/11/27 01:44:40;;;;;;;4.87;3.63;;;4.50;99.90;;;;;;5050340;28;20571;-64
2021/11/27 01:47:07;;;;;;;6.20;3.73;;;4.50;99.90;;;;;;5049834;28;20458;-62
2021/11/27 01:49:34;;;;;;;4.67;3.40;;;4.50;99.90;;;;;;5050109;28;20531;-63
2021/11/27 01:52:02;;;;;;;4.83;3.60;;;4.50;99.90;;;;;;5050055;28;20561;-63
2021/11/27 01:54:30;;;;;;;5.60;3.60;;;4.50;99.90;;;;;;5049802;28;20926;-63
2021/11/27 01:56:59;;;;;;;5.97;4.00;;;4.50;99.90;;;;;;5049580;28;20454;-63
2021/11/27 01:59:29;;;;;;;4.97;3.90;;;4.60;99.90;;;;;;5050099;28;20542;-63
2021/11/27 02:01:56;;;;;;;6.17;3.97;;;4.60;99.90;;;;;;5049638;28;20475;-64
2021/11/27 02:04:24;;;;;;;6.57;3.70;;;4.60;99.90;;;;;;5049815;28;20484;-63
2021/11/27 02:06:51;;;;;;;4.93;4.17;;;4.60;99.90;;;;;;5049552;28;20447;-64
2021/11/27 02:09:20;;;;;;;5.17;4.10;;;4.70;99.90;;;;;;5049514;28;20564;-64
2021/11/27 02:11:50;;;;;;;4.90;3.80;;;4.70;99.90;;;;;;5049423;28;20554;-63
2021/11/27 02:14:18;;;;;;;9.10;4.67;;;4.70;99.90;;;;;;5049271;28;20527;-63
2021/11/27 02:16:46;;;;;;;4.47;3.13;;;4.70;99.90;;;;;;5045792;28;20534;-61
2021/11/27 02:19:14;;;;;;;6.20;3.63;;;4.70;99.90;;;;;;5049843;28;20477;-64
2021/11/27 02:21:44;;;;;;;4.33;3.33;;;4.70;99.90;;;;;;5049276;28;20542;-64
2021/11/27 02:24:12;;;;;;;5.60;4.27;;;4.70;99.90;;;;;;5050060;28;20526;-63
2021/11/27 02:26:39;;;;;;;5.43;3.43;;;4.70;99.90;;;;;;5049466;28;20447;-63
2021/11/27 02:29:08;;;;;;;6.27;3.93;;;4.70;99.90;;;;;;5051177;28;20471;-64
2021/11/27 02:31:35;;;;;;;5.53;3.47;;;4.70;99.90;;;;;;5051122;28;20452;-63
2021/11/27 02:34:03;;;;;;;4.50;3.63;;;4.70;99.90;;;;;;5052394;28;20527;-63
2021/11/27 02:36:30;;;;;;;5.70;3.80;;;4.60;99.90;;;;;;5051740;28;20508;-64
2021/11/27 02:38:59;;;;;;;4.90;4.00;;;4.70;99.90;;;;;;5052304;28;20547;-63
2021/11/27 02:41:26;;;;;;;4.03;3.50;;;4.60;99.90;;;;;;5051693;28;20545;-63
2021/11/27 02:43:54;;;;;;;4.73;3.13;;;4.60;99.90;;;;;;5051870;28;20472;-65
2021/11/27 02:46:21;;;;;;;5.40;3.57;;;4.60;99.90;;;;;;5050632;28;20527;-64
2021/11/27 02:48:48;;;;;;;5.20;3.40;;;4.60;99.90;;;;;;5050735;28;20496;-63
2021/11/27 02:51:15;;;;;;;4.73;3.63;;;4.60;99.90;;;;;;5050821;28;20881;-63
2021/11/27 02:53:42;;;;;;;5.00;3.40;;;4.60;99.90;;;;;;5050797;28;20442;-62
2021/11/27 02:56:11;;;;;;;4.70;3.10;;;4.60;99.90;;;;;;5050689;28;20489;-63
2021/11/27 02:58:38;;;;;;;5.93;3.17;;;4.60;99.90;;;;;;5050299;28;21013;-62
2021/11/27 03:01:07;;;;;;;5.27;3.17;;;4.60;99.90;;;;;;5050768;28;20535;-63
2021/11/27 03:03:34;;;;;;;4.83;3.47;;;4.50;99.90;;;;;;5050392;28;20604;-63
2021/11/27 03:06:02;;;;;;;4.70;3.23;;;4.50;99.90;;;;;;5050708;28;20447;-61
2021/11/27 03:08:29;;;;;;;4.80;3.40;;;4.50;99.90;;;;;;5050095;28;21053;-63
2021/11/27 03:10:56;;;;;;;5.20;3.70;;;4.50;99.90;;;;;;5050376;28;21044;-63
2021/11/27 03:13:28;;;;;;;4.60;3.07;;;4.50;99.90;;;;;;5050262;28;20535;-63
2021/11/27 03:15:55;;;;;;;5.13;3.43;;;4.60;99.90;;;;;;5050455;28;20550;-62
2021/11/27 03:18:22;;;;;;;4.83;3.77;;;4.60;99.90;;;;;;5050234;28;20563;-61
2021/11/27 03:20:50;;;;;;;5.57;3.53;;;4.60;99.90;;;;;;5050226;28;20483;-63
2021/11/27 03:23:17;;;;;;;5.73;3.57;;;4.50;99.90;;;;;;5048917;28;20568;-64
2021/11/27 03:25:45;;;;;;;5.83;3.77;;;4.60;99.90;;;;;;5048587;28;20441;-63
2021/11/27 03:28:12;;;;;;;4.83;3.50;;;4.60;99.90;;;;;;5049684;28;20848;-63
2021/11/27 03:30:41;;;;;;;6.10;5.03;;;4.60;99.90;;;;;;5050085;28;20526;-62
2021/11/27 03:33:08;;;;;;;4.50;3.53;;;4.60;99.90;;;;;;5050266;28;20454;-63
2021/11/27 03:35:35;;;;;;;5.73;3.67;;;4.50;99.90;;;;;;5050043;28;20532;-62
2021/11/27 03:38:02;;;;;;;5.23;3.67;;;4.50;99.90;;;;;;5049712;28;20551;-63
2021/11/27 03:40:30;;;;;;;5.50;3.60;;;4.50;99.90;;;;;;5049923;28;20451;-63
2021/11/27 03:42:57;;;;;;;4.93;3.40;;;4.50;99.90;;;;;;5050061;28;20554;-63
2021/11/27 03:45:26;;;;;;;6.23;3.50;;;4.50;99.90;;;;;;5050019;28;20566;-62
2021/11/27 03:47:59;;;;;;;4.80;3.73;;;4.50;99.90;;;;;;5049814;28;20559;-63
2021/11/27 03:50:31;;;;;;;5.20;3.83;;;4.60;99.90;;;;;;5049855;28;20532;-62
2021/11/27 03:52:58;;;;;;;5.10;3.60;;;4.60;99.90;;;;;;5050122;28;20862;-62
2021/11/27 03:55:25;;;;;;;5.77;4.70;;;4.50;99.90;;;;;;5049738;28;20450;-63
2021/11/27 03:57:52;;;;;;;5.57;3.93;;;4.50;99.90;;;;;;5049532;28;20551;-63
2021/11/27 04:00:19;;;;;;;4.27;3.33;;;4.40;99.90;;;;;;5049943;28;20531;-63
2021/11/27 04:02:46;;;;;;;5.80;3.83;;;4.40;99.90;;;;;;5050176;28;20531;-62
2021/11/27 04:05:15;;;;;;;4.97;3.70;;;4.30;99.90;;;;;;5050051;28;21118;-63
2021/11/27 04:07:42;;;;;;;5.00;3.50;;;4.30;99.90;;;;;;5049582;28;20554;-61
2021/11/27 04:10:09;;;;;;;6.20;3.20;;;4.30;99.90;;;;;;5050206;28;20464;-62
2021/11/27 04:12:36;;;;;;;4.97;3.47;;;4.20;99.90;;;;;;5050030;28;20441;-62
2021/11/27 04:15:04;;;;;;;6.00;3.20;;;4.30;99.90;;;;;;5050085;28;20526;-62
2021/11/27 04:17:31;;;;;;;4.67;3.40;;;4.20;99.90;;;;;;5049582;28;20534;-62
2021/11/27 04:19:58;;;;;;;4.50;3.30;;;4.30;99.90;;;;;;5049888;28;20454;-62
2021/11/27 04:22:26;;;;;;;4.10;2.80;;;4.30;99.90;;;;;;5049621;28;20444;-62
2021/11/27 04:24:53;;;;;;;4.00;2.90;;;4.30;99.90;;;;;;5049890;28;20509;-61
2021/11/27 04:27:20;;;;;;;3.60;2.93;;;4.40;99.90;;;;;;5049077;28;20503;-63
2021/11/27 04:29:47;;;;;;;5.60;3.10;;;4.40;99.90;;;;;;5049583;28;20539;-59
2021/11/27 04:32:14;;;;;;;3.50;2.90;;;4.40;99.90;;;;;;5049269;28;20439;-63
2021/11/27 04:34:41;;;;;;;4.70;2.70;;;4.40;99.90;;;;;;5049560;28;20848;-61
2021/11/27 04:37:10;;;;;;;5.97;4.13;;;4.40;99.90;;;;;;5048903;28;20584;-63
2021/11/27 04:39:39;;;;;;;5.90;2.93;;;4.30;99.90;;;;;;5053136;28;20465;-61
2021/11/27 04:42:07;;;;;;;5.63;3.17;;;4.30;99.90;;;;;;5053544;28;21002;-64
2021/11/27 04:44:34;;;;;;;3.30;2.33;;;4.30;99.90;;;;;;5052971;28;20487;-60
2021/11/27 04:47:01;;;;;;;5.80;2.60;;;4.30;99.90;;;;;;5053166;28;20537;-60
2021/11/27 04:49:28;;;;;;;3.30;2.80;;;4.30;99.90;;;;;;5052946;28;20444;-63
2021/11/27 04:51:55;;;;;;;4.80;2.70;;;4.40;99.90;;;;;;5052925;28;20528;-63
2021/11/27 04:54:22;;;;;;;3.10;2.20;;;4.40;99.90;;;;;;5053114;28;20925;-62
2021/11/27 04:56:50;;;;;;;5.00;3.13;;;4.40;99.90;;;;;;5053001;28;20526;-63
2021/11/27 04:59:17;;;;;;;3.10;2.47;;;4.40;99.90;;;;;;5053047;28;20550;-62
2021/11/27 05:01:44;;;;;;;3.87;2.80;;;4.40;99.90;;;;;;5052904;28;20941;-62
2021/11/27 05:04:11;;;;;;;3.60;2.37;;;4.40;99.90;;;;;;5052646;28;20578;-63
2021/11/27 05:06:38;;;;;;;3.70;2.30;;;4.50;99.90;;;;;;5052825;28;20539;-63
2021/11/27 05:09:05;;;;;;;2.90;1.80;;;4.50;99.90;;;;;;5052381;28;20546;-62
2021/11/27 05:11:32;;;;;;;3.37;1.80;;;4.50;99.90;;;;;;5052820;28;20459;-60
2021/11/27 05:14:00;;;;;;;4.83;2.13;;;4.60;99.90;;;;;;5052738;28;20439;-63
2021/11/27 05:16:28;;;;;;;3.40;1.93;;;4.60;99.90;;;;;;5052242;28;20536;-62
2021/11/27 05:18:55;;;;;;;4.20;2.10;;;4.60;99.90;;;;;;5052433;28;20479;-63
2021/11/27 05:21:22;;;;;;;3.00;1.77;;;4.60;99.90;;;;;;5052378;28;20444;-64
2021/11/27 05:23:49;;;;;;;2.40;1.70;;;4.50;99.90;;;;;;5052421;28;21166;-63
2021/11/27 05:26:16;;;;;;;3.90;1.83;;;4.50;99.90;;;;;;5052206;28;20454;-62
2021/11/27 05:28:43;;;;;;;2.57;1.80;;;4.50;99.90;;;;;;5052428;28;20562;-63
2021/11/27 05:31:14;;;;;;;3.20;1.93;;;4.50;99.90;;;;;;5052211;28;20539;-62
2021/11/27 05:33:58;;;;;;;2.43;1.50;;;4.50;99.90;;;;;;5052736;28;20452;-63
2021/11/27 05:36:28;;;;;;;2.87;1.70;;;4.50;99.90;;;;;;5052007;28;20475;-64
2021/11/27 05:38:55;;;;;;;2.30;1.50;;;4.50;99.90;;;;;;5052177;28;21028;-63
2021/11/27 05:41:22;;;;;;;2.97;1.77;;;4.40;99.90;;;;;;5052114;28;20545;-62
2021/11/27 05:43:49;;;;;;;2.30;1.50;;;4.40;99.90;;;;;;5052149;28;20543;-63
2021/11/27 05:46:17;;;;;;;2.60;1.53;;;4.50;99.90;;;;;;5051898;28;20531;-63
2021/11/27 05:48:44;;;;;;;2.37;1.43;;;4.50;99.90;;;;;;5051890;28;20532;-63
2021/11/27 05:51:11;;;;;;;2.50;1.77;;;4.50;99.90;;;;;;5051071;28;20543;-60
2021/11/27 05:53:38;;;;;;;2.70;1.40;;;4.50;99.90;;;;;;5052083;28;20448;-63
2021/11/27 05:56:05;;;;;;;3.00;1.50;;;4.50;99.90;;;;;;5051680;28;20538;-62
2021/11/27 05:58:32;;;;;;;3.60;1.50;;;4.50;99.90;;;;;;5051453;28;20546;-61
2021/11/27 06:01:03;;;;;;;2.30;1.40;;;4.50;99.90;;;;;;5051927;28;20543;-62
2021/11/27 06:03:31;;;;;;;2.73;1.50;;;4.50;99.90;;;;;;5052129;28;20463;-64
2021/11/27 06:05:58;;;;;;;2.80;1.70;;;4.50;99.90;;;;;;5051856;28;20486;-64
2021/11/27 06:08:25;;;;;;;3.00;1.60;;;4.50;99.90;;;;;;5051189;28;21044;-62
2021/11/27 06:10:52;;;;;;;3.43;1.80;;;4.50;99.90;;;;;;5051604;28;20555;-63
2021/11/27 06:13:19;;;;;;;3.53;1.83;;;4.50;99.90;;;;;;5051588;28;20456;-63
2021/11/27 06:15:46;;;;;;;2.00;1.40;;;4.50;99.90;;;;;;5051722;28;20535;-61
2021/11/27 06:18:13;;;;;;;2.30;1.30;;;4.50;99.90;;;;;;5051104;28;20473;-63
2021/11/27 06:20:41;;;;;;;2.20;1.23;;;4.50;99.90;;;;;;5051712;28;20546;-63
2021/11/27 06:23:08;;;;;;;2.27;2.03;;;4.40;99.90;;;;;;5051179;28;20966;-63
2021/11/27 06:25:35;;;;;;;3.03;1.53;;;4.50;99.90;;;;;;5051218;28;20575;-64
2021/11/27 06:28:02;;;;;;;4.57;1.60;;;4.50;99.90;;;;;;5050895;28;20510;-63
2021/11/27 06:30:29;;;;;;;3.07;1.63;;;4.50;99.90;;;;;;5051401;28;20519;-64
2021/11/27 06:32:56;;;;;;;2.73;1.60;;;4.50;99.90;;;;;;5051212;28;20540;-61
2021/11/27 06:35:23;;;;;;;3.33;1.33;;;4.50;99.90;;;;;;5051245;28;20535;-63
2021/11/27 06:37:51;;;;;;;5.43;1.60;;;4.50;99.90;;;;;;5050486;28;20555;-62
2021/11/27 06:40:18;;;;;;;2.83;1.33;;;4.50;99.90;;;;;;5051310;28;20540;-63
2021/11/27 06:42:45;;;;;;;3.80;1.83;;;4.50;99.90;;;;;;5051083;28;20297;-63
2021/11/27 06:45:12;;;;;;;2.60;1.20;;;4.50;99.90;;;;;;5051062;28;21021;-63
2021/11/27 06:47:39;;;;;;;2.73;1.47;;;4.50;99.90;;;;;;5050681;28;21048;-63
2021/11/27 06:50:07;;;;;;;2.70;1.70;;;4.50;99.90;;;;;;5050914;28;20486;-61
2021/11/27 06:52:34;;;;;;;3.53;1.97;;;4.50;99.90;;;;;;5050932;28;20535;-62
2021/11/27 06:55:02;;;;;;;3.17;1.50;;;4.40;99.90;;;;;;5050921;28;20533;-61
2021/11/27 06:57:29;;;;;;;5.27;1.83;;;4.40;99.90;;;;;;5050880;28;20504;-63
2021/11/27 06:59:55;;;;;;;2.43;1.40;;;4.40;99.90;;;;;;5050918;28;20468;-64
2021/11/27 07:02:22;;;;;;;3.40;1.90;;;4.40;99.90;;;;;;5050542;28;20479;-63
2021/11/27 07:04:49;;;;;;;4.47;1.83;;;4.30;99.90;;;;;;5050397;28;20571;-64
2021/11/27 07:07:16;;;;;;;2.77;1.60;;;4.30;99.90;;;;;;5050176;28;20467;-64
2021/11/27 07:09:43;;;;;;;3.43;1.90;;;4.30;99.90;;;;;;5050099;28;20985;-63
2021/11/27 07:12:11;;;;;;;3.37;1.80;;;4.40;99.90;;;;;;5050409;28;20448;-64
2021/11/27 07:14:38;;;;;;;4.10;1.90;;;4.40;99.90;;;;;;5050276;28;21014;-64
2021/11/27 07:17:05;;;;;;;3.03;1.90;;;4.50;99.90;;;;;;5050072;28;20531;-63
2021/11/27 07:19:32;;;;;;;3.00;1.80;;;4.50;99.90;;;;;;5050546;28;20527;-63
2021/11/27 07:22:00;;;;;;;2.73;1.90;;;4.60;99.90;;;;;;5050285;28;20448;-63
2021/11/27 07:24:27;;;;;;;2.67;1.60;;;4.60;99.90;;;;;;5051001;28;21122;-64
2021/11/27 07:26:53;;;;;;;3.80;1.80;;;4.60;99.90;;;;;;5049973;28;20445;-64
2021/11/27 07:29:22;;;;;;;2.87;1.60;;;4.60;99.90;;;;;;5050402;28;20544;-64
2021/11/27 07:31:49;;;;;;;3.90;2.00;;;4.70;99.90;;;;;;5049957;28;20555;-63
2021/11/27 07:34:16;;;;;;;3.33;1.97;;;4.70;99.90;;;;;;5050294;28;20583;-62
2021/11/27 07:36:43;;;;;;;3.27;1.63;;;4.70;99.90;;;;;;5049810;28;20530;-64
2021/11/27 07:39:10;;;;;;;3.30;1.50;;;4.70;99.90;;;;;;5050179;28;20511;-64
2021/11/27 07:41:38;;;;;;;3.07;1.33;;;4.80;99.90;;;;;;5049514;28;20973;-63
2021/11/27 07:44:06;;;;;;;3.67;1.80;;;4.70;99.90;;;;;;5050143;28;20452;-64
2021/11/27 07:46:34;;;;;;;3.27;1.70;;;4.70;99.90;;;;;;5049374;28;20570;-63
2021/11/27 07:49:01;;;;;;;2.17;1.50;;;4.80;99.90;;;;;;5050279;28;20464;-64
2021/11/27 07:51:30;;;;;;;2.10;1.27;;;4.70;99.90;;;;;;5045265;28;20528;-67
2021/11/27 07:53:57;;;;;;;2.97;1.33;;;4.70;99.90;;;;;;5047786;28;20828;-62
2021/11/27 07:56:24;;;;;;;2.33;1.37;;;4.70;99.90;;;;;;5049029;28;20877;-63
2021/11/27 07:58:51;;;;;;;2.47;1.70;;;4.60;99.90;;;;;;5049524;28;20496;-63
2021/11/27 08:01:18;;;;;;;3.10;1.60;;;4.60;99.90;;;;;;5049290;28;20532;-65
2021/11/27 08:03:47;;;;;;;3.30;1.77;;;4.60;99.90;;;;;;5049286;28;20526;-64
2021/11/27 08:06:14;;;;;;;3.10;2.40;;;4.60;99.90;;;;;;5049569;28;20611;-63
2021/11/27 08:08:41;;;;;;;3.10;1.80;;;4.60;99.90;;;;;;5048904;28;20575;-63
2021/11/27 08:11:09;;;;;;;2.57;1.57;;;4.50;99.90;;;;;;5049218;28;20543;-63
2021/11/27 08:13:37;;;;;;;3.27;2.00;;;4.50;99.90;;;;;;5050401;28;20455;-63
2021/11/27 08:16:04;;;;;;;2.70;1.80;;;4.40;99.90;;;;;;5053200;28;20483;-61
2021/11/27 08:18:31;;;;;;;2.43;1.30;;;4.50;99.90;;;;;;5052930;28;20503;-63
2021/11/27 08:21:00;;;;;;;2.40;1.60;;;4.50;99.90;;;;;;5053174;28;20537;-64
2021/11/27 08:23:27;;;;;;;5.70;1.60;;;4.50;99.90;;;;;;5053078;28;20898;-65
2021/11/27 08:25:54;;;;;;;2.87;1.73;;;4.60;99.90;;;;;;5053277;28;20571;-66
2021/11/27 08:28:20;;;;;;;2.87;1.77;;;4.70;99.90;;;;;;5052546;28;20590;-66
2021/11/27 08:30:47;;;;;;;3.40;1.80;;;4.80;99.90;;;;;;5052936;28;20885;-64
2021/11/27 08:33:14;;;;;;;2.90;1.80;;;5.00;99.90;;;;;;5053491;28;20440;-64
2021/11/27 08:35:41;;;;;;;2.53;1.60;;;5.20;99.90;;;;;;5046741;28;21214;-64
2021/11/27 08:38:09;;;;;;;3.10;1.70;;;5.40;99.90;;;;;;5052566;28;20496;-64
2021/11/27 08:40:36;;;;;;;2.83;1.80;;;5.70;99.90;;;;;;5052660;28;20524;-63
2021/11/27 08:43:03;;;;;;;2.73;1.60;;;5.80;99.90;;;;;;5052872;28;20897;-64
2021/11/27 08:45:30;;;;;;;2.47;1.70;;;5.90;99.90;;;;;;5052293;28;20575;-64
2021/11/27 08:47:57;;;;;;;2.97;1.83;;;6.10;99.90;;;;;;5051516;28;20551;-65
2021/11/27 08:50:25;;;;;;;2.60;1.70;;;6.20;99.90;;;;;;5052802;28;20531;-62
2021/11/27 08:52:52;;;;;;;2.93;1.70;;;6.20;99.90;;;;;;5052705;28;20480;-64
2021/11/27 08:55:20;;;;;;;2.93;1.70;;;6.40;99.90;;;;;;5052874;28;20875;-64
2021/11/27 08:57:48;;;;;;;3.20;1.30;;;6.60;99.90;;;;;;5051963;28;20474;-64
2021/11/27 09:00:16;;;;;;;2.90;1.30;;;6.70;99.90;;;;;;5052893;28;20466;-65
2021/11/27 09:02:42;;;;;;;2.30;1.40;;;6.70;99.90;;;;;;5052303;28;20970;-64
2021/11/27 09:05:11;;;;;;;2.40;1.30;;;6.80;99.90;;;;;;5052523;28;20515;-65
2021/11/27 09:07:38;;;;;;;2.70;1.53;;;7.00;99.90;;;;;;5051890;28;20892;-64
2021/11/27 09:10:06;;;;;;;3.17;1.63;;;7.20;99.90;;;;;;5051397;28;20547;-65
2021/11/27 09:12:36;;;;;;;2.80;1.27;;;7.30;99.90;;;;;;5052275;28;20448;-65
2021/11/27 09:15:04;;;;;;;2.50;1.20;;;7.40;99.90;;;;;;5052530;28;20531;-63
2021/11/27 09:17:31;;;;;;;1.90;1.10;;;7.30;99.90;;;;;;5052254;28;20496;-64
2021/11/27 09:19:58;;;;;;;3.43;1.40;;;7.30;99.90;;;;;;5052296;28;20531;-64
2021/11/27 09:22:25;;;;;;;3.90;1.70;;;7.20;99.90;;;;;;5052404;28;20548;-64
2021/11/27 09:24:52;;;;;;;2.70;1.90;;;7.10;99.90;;;;;;5051710;28;20491;-65
2021/11/27 09:27:19;;;;;;;2.17;1.30;;;7.00;99.90;;;;;;5052154;28;20552;-64
2021/11/27 09:29:47;;;;;;;2.50;1.40;;;7.00;99.90;;;;;;5052065;28;20484;-65
2021/11/27 09:32:15;;;;;;;3.07;1.50;;;7.00;99.90;;;;;;5052556;28;20476;-64
2021/11/27 09:34:43;;;;;;;3.23;1.40;;;6.90;99.90;;;;;;5049806;28;20648;-64
2021/11/27 09:37:13;;;;;;;2.30;1.40;;;7.00;99.90;;;;;;5049449;28;20444;-66
2021/11/27 09:39:41;;;;;;;3.40;1.50;;;7.00;99.90;;;;;;5042191;28;21024;-66
2021/11/27 09:42:08;;;;;;;2.90;1.43;;;6.90;99.90;;;;;;5061106;28;20699;-65
2021/11/27 09:44:37;;;;;;;4.10;1.40;;;6.90;99.90;;;;;;5065739;28;21006;-65
2021/11/27 09:47:06;;;;;;;4.70;1.50;;;7.00;99.90;;;;;;5067519;28;20482;-65
2021/11/27 09:49:37;;;;;;;2.20;1.10;;;7.10;99.90;;;;;;5066443;28;20972;-65
2021/11/27 09:52:04;;;;;;;3.20;1.80;;;7.00;99.90;;;;;;5066664;28;20888;-65
2021/11/27 09:54:32;;;;;;;4.37;1.73;;;7.00;99.90;;;;;;5065958;28;20483;-64
2021/11/27 09:56:59;;;;;;;3.90;1.27;;;7.00;99.90;;;;;;5060354;28;20536;-63
2021/11/27 09:59:26;;;;;;;2.13;1.10;;;7.00;99.90;;;;;;5053777;28;20458;-62
2021/11/27 10:01:55;;;;;;;4.00;1.33;;;7.00;99.90;;;;;;5061844;28;20440;-62
2021/11/27 10:04:24;;;;;;;5.70;1.50;;;7.10;99.90;;;;;;5057592;28;20501;-61
2021/11/27 10:06:52;;;;;;;2.73;1.73;;;6.90;99.90;;;;;;5057495;28;20475;-64
2021/11/27 10:09:22;;;;;;;2.50;1.03;;;6.80;99.90;;;;;;5061892;28;20543;-65
2021/11/27 10:11:51;;;;;;;3.60;1.20;;;6.80;99.90;;;;;;5064461;28;20517;-60
2021/11/27 10:14:20;;;;;;;2.00;1.00;;;6.90;99.90;;;;;;5064345;28;20448;-61
2021/11/27 10:17:06;;;;;;;3.07;1.30;;;7.00;99.90;;;;;;5059255;28;20532;-64
2021/11/27 10:19:48;;;;;;;3.93;1.07;;;7.20;99.90;;;;;;5058526;28;21008;-64
2021/11/27 10:22:19;;;;;;;2.33;1.40;;;7.50;99.90;;;;;;5056710;28;20535;-64
2021/11/27 10:24:48;;;;;;;1.93;1.00;;;7.60;99.90;;;;;;5052582;28;20480;-63
2021/11/27 10:27:21;;;;;;;2.77;1.30;;;7.80;99.90;;;;;;5054430;28;20475;-58
2021/11/27 10:30:00;;;;;;;2.27;1.03;;;8.10;99.90;;;;;;5059899;28;20938;-63
2021/11/27 10:32:32;;;;;;;2.23;1.07;;;8.30;99.90;;;;;;5059234;28;20467;-60
2021/11/27 10:35:01;;;;;;;2.10;1.30;;;8.90;99.90;;;;;;5058186;28;20555;-61
2021/11/27 10:37:30;;;;;;;2.60;0.97;;;9.60;99.90;;;;;;5040731;28;20475;-64
2021/11/27 10:40:00;;;;;;;2.40;0.97;;;9.70;99.90;;;;;;5049211;28;20532;-63
2021/11/27 10:42:27;;;;;;;6.20;1.70;;;9.30;99.90;;;;;;5044925;28;21228;-62
2021/11/27 10:44:56;;;;;;;2.80;1.27;;;8.90;99.90;;;;;;5052801;28;20511;-64
2021/11/27 10:47:24;;;;;;;3.17;1.37;;;8.50;99.90;;;;;;5050818;28;20530;-65
2021/11/27 10:49:51;;;;;;;3.43;1.47;;;8.20;99.90;;;;;;5056998;28;20447;-62
2021/11/27 10:52:22;;;;;;;2.60;1.40;;;7.90;99.90;;;;;;5059650;28;20505;-60
2021/11/27 10:54:52;;;;;;;2.10;1.13;;;7.80;99.90;;;;;;5057255;28;20539;-63
2021/11/27 10:57:31;;;;;;;4.33;1.50;;;7.70;99.90;;;;;;5050961;28;20547;-63
2021/11/27 11:00:00;;;;;;;2.30;1.13;;;7.70;99.90;;;;;;5055141;28;20945;-60
2021/11/27 11:02:29;;;;;;;4.03;1.30;;;7.60;99.90;;;;;;5056700;28;20454;-63
2021/11/27 11:05:04;;;;;;;3.43;1.40;;;7.40;99.90;;;;;;5050919;28;21034;-62
2021/11/27 11:07:32;;;;;;;2.43;1.20;;;7.30;99.90;;;;;;5054290;28;20566;-63
2021/11/27 11:10:01;;;;;;;3.00;1.40;;;7.30;99.90;;;;;;5057167;28;20451;-62
2021/11/27 11:12:34;;;;;;;2.50;1.30;;;7.30;99.90;;;;;;5054134;28;20456;-63
2021/11/27 11:15:09;;;;;;;2.27;1.00;;;7.30;99.90;;;;;;5052566;28;20539;-63
2021/11/27 11:17:36;;;;;;;3.00;1.20;;;7.30;99.90;;;;;;5054077;28;20470;-64
2021/11/27 11:20:14;;;;;;;3.73;1.23;;;7.30;99.90;;;;;;5057107;28;20899;-63
2021/11/27 11:22:57;;;;;;;2.70;1.33;;;7.40;99.90;;;;;;5059968;28;20439;-63
2021/11/27 11:25:24;;;;;;;2.00;0.93;;;7.40;99.90;;;;;;5056540;28;20447;-66
2021/11/27 11:27:51;;;;;;;4.10;1.63;;;7.30;99.90;;;;;;5057242;28;21190;-64
2021/11/27 11:30:21;;;;;;;3.57;1.43;;;7.30;99.90;;;;;;5059793;28;20471;-69
2021/11/27 11:32:49;;;;;;;3.40;1.60;;;7.40;99.90;;;;;;5062273;28;20535;-64
2021/11/27 11:35:16;;;;;;;2.80;1.37;;;7.30;99.90;;;;;;5063106;28;20452;-64
2021/11/27 11:37:44;;;;;;;3.37;1.40;;;7.30;99.90;;;;;;5062313;28;20468;-64
2021/11/27 11:40:12;;;;;;;2.23;1.00;;;7.20;99.90;;;;;;5063615;28;20471;-65
2021/11/27 11:42:40;;;;;;;2.33;1.30;;;7.20;99.90;;;;;;5063397;28;20470;-64
2021/11/27 11:45:08;;;;;;;4.40;1.60;;;7.20;99.90;;;;;;5064615;28;20438;-65
2021/11/27 11:47:35;;;;;;;5.33;1.63;;;7.20;99.90;;;;;;5064143;28;20484;-64
2021/11/27 11:50:05;;;;;;;4.63;1.50;;;7.20;99.90;;;;;;5064787;28;20456;-65
2021/11/27 11:52:39;;;;;;;3.30;1.40;;;7.20;99.90;;;;;;5064787;28;20523;-58
2021/11/27 11:55:11;;;;;;;2.30;0.97;;;7.10;99.90;;;;;;5064055;28;21462;-62
2021/11/27 11:57:44;;;;;;;1.93;1.20;;;7.00;99.90;;;;;;5065424;28;20472;-63
2021/11/27 12:00:25;;;;;;;2.43;0.90;;;6.40;99.90;;;;;;5065058;28;20537;-63
2021/11/27 12:02:52;;;;;;;1.70;0.80;;;5.60;99.90;;;;;;5064545;28;20618;-63
2021/11/27 12:05:22;;;;;;;2.00;1.13;;;5.20;99.90;;;;;;5064667;28;20443;-64
2021/11/27 12:07:57;;;;;;;2.43;1.10;;;4.80;99.90;;;;;;5064385;28;20489;-63
2021/11/27 12:10:26;;;;;;;1.80;0.90;;;4.60;99.90;;;;;;5064998;28;20457;-63
2021/11/27 12:13:23;;;;;;;2.10;1.13;;;4.40;99.90;;;;;;5058093;28;20536;-63
2021/11/27 12:16:02;;;;;;;3.33;0.90;;;4.30;99.90;;;;;;5057557;28;20447;-65
2021/11/27 12:18:29;;;;;;;1.60;0.70;;;4.20;99.90;;;;;;5061818;28;20553;-64
2021/11/27 12:20:58;;;;;;;2.10;1.00;;;4.20;99.90;;;;;;5060441;28;20454;-65
2021/11/27 12:23:38;;;;;;;2.47;1.33;;;4.20;99.90;;;;;;5064322;28;21138;-63
2021/11/27 12:26:20;;;;;;;2.27;0.80;;;4.30;99.90;;;;;;5055400;28;20980;-64
2021/11/27 12:29:11;;;;;;;2.60;1.27;;;4.40;99.90;;;;;;5062993;28;20466;-63
2021/11/27 12:31:50;;;;;;;2.37;0.87;;;4.60;99.90;;;;;;5063568;28;20816;-63
2021/11/27 12:34:42;;;;;;;2.10;0.93;;;4.80;99.90;;;;;;5064122;28;20454;-64
2021/11/27 12:37:27;;;;;;;2.67;0.90;;;4.90;99.90;;;;;;5063582;28;21024;-63
2021/11/27 12:39:54;;;;;;;2.23;0.97;;;5.00;99.90;;;;;;5064034;28;20438;-65
2021/11/27 12:42:33;;;;;;;2.53;0.87;;;5.10;99.90;;;;;;5062849;28;20445;-65
2021/11/27 12:45:01;;;;;;;2.10;1.10;;;5.10;99.90;;;;;;5060941;28;20475;-63
2021/11/27 12:47:33;;;;;;;2.10;1.10;;;5.10;99.90;;;;;;5064193;28;20486;-63
2021/11/27 12:50:03;;;;;;;1.87;0.80;;;5.00;99.90;;;;;;5062222;28;20948;-62
2021/11/27 12:52:33;;;;;;;1.87;0.90;;;4.90;99.90;;;;;;5063053;28;20531;-64
2021/11/27 12:55:33;;;;;;;2.10;1.10;;;5.00;99.90;;;;;;5065645;28;20529;-63
2021/11/27 12:58:23;;;;;;;2.00;1.10;;;5.10;99.90;;;;;;5064621;28;20517;-63
2021/11/27 13:00:50;;;;;;;3.30;1.43;;;5.00;99.90;;;;;;5066588;28;20458;-64
2021/11/27 13:03:17;;;;;;;3.40;1.73;;;5.00;99.90;;;;;;5066801;28;20545;-65
2021/11/27 13:05:44;;;;;;;3.00;1.90;;;5.00;99.90;;;;;;5068926;28;20533;-65